TimeEST,TemperatureF,Dew PointF,Humidity,Sea Level PressureIn,VisibilityMPH,Wind Direction,Wind SpeedMPH,Gust SpeedMPH,PrecipitationIn,Events,Conditions,WindDirDegrees,DateUTC
12:53 AM,-5.1,-9.0,83,30.01,10.0,Calm,Calm,-,N/A,,Clear,0,2013-01-02 05:53:00
1:53 AM,-7.1,-9.9,87,30.01,10.0,Calm,Calm,-,N/A,,Clear,0,2013-01-02 06:53:00
2:42 AM,-7.6,-13.0,77,29.97,10.0,Calm,Calm,-,N/A,,Partly Cloudy,0,2013-01-02 07:42:00
2:53 AM,-8.0,-13.0,79,30.02,10.0,Calm,Calm,-,N/A,,Partly Cloudy,0,2013-01-02 07:53:00
3:53 AM,-5.8,-9.4,84,29.96,10.0,Calm,Calm,-,N/A,,Scattered Clouds,0,2013-01-02 08:53:00
4:53 AM,-0.9,-6.0,79,29.99,10.0,Calm,Calm,-,N/A,,Overcast,0,2013-01-02 09:53:00
5:53 AM,6.1,1.9,83,29.97,10.0,South,4.6,-,N/A,,Overcast,190,2013-01-02 10:53:00
6:53 AM,8.1,3.0,80,29.97,9.0,Calm,Calm,-,N/A,,Overcast,0,2013-01-02 11:53:00
7:53 AM,9.0,5.0,84,29.98,8.0,ENE,3.5,-,0.00,,Overcast,60,2013-01-02 12:53:00
8:53 AM,10.9,7.0,84,29.99,6.0,Calm,Calm,-,0.00,,Overcast,0,2013-01-02 13:53:00
9:46 AM,14.0,8.6,79,29.96,2.5,Calm,Calm,-,0.00,,Haze,0,2013-01-02 14:46:00
9:53 AM,14.0,9.0,80,30.01,6.0,Calm,Calm,-,0.00,,Haze,0,2013-01-02 14:53:00
10:53 AM,17.1,10.9,77,30.01,8.0,Calm,Calm,-,N/A,,Overcast,0,2013-01-02 15:53:00
11:53 AM,19.0,12.9,77,30.01,3.0,NNE,4.6,-,0.00,Snow,Light Snow,20,2013-01-02 16:53:00
12:07 PM,17.6,12.2,79,29.96,2.0,Calm,Calm,-,0.00,Snow,Light Snow,0,2013-01-02 17:07:00
12:15 PM,17.6,12.2,79,29.96,1.8,Calm,Calm,-,0.00,Snow,Light Snow,0,2013-01-02 17:15:00
12:48 PM,19.4,14.0,80,29.95,2.0,South,3.5,-,0.00,Snow,Light Snow,180,2013-01-02 17:48:00
12:53 PM,19.0,15.1,85,30.00,3.0,South,4.6,-,0.00,Snow,Light Snow,180,2013-01-02 17:53:00
1:53 PM,24.1,12.0,60,30.01,10.0,West,5.8,-,0.00,,Mostly Cloudy,280,2013-01-02 18:53:00
2:53 PM,21.9,6.1,51,30.04,10.0,North,12.7,-,N/A,,Partly Cloudy,360,2013-01-02 19:53:00
3:53 PM,19.9,3.0,48,30.09,10.0,North,10.4,-,N/A,,Clear,360,2013-01-02 20:53:00
4:53 PM,12.9,3.9,67,30.13,10.0,NNE,9.2,-,N/A,,Clear,20,2013-01-02 21:53:00
5:53 PM,9.0,1.9,73,30.16,10.0,East,8.1,-,N/A,,Clear,80,2013-01-02 22:53:00
6:53 PM,7.0,-0.0,73,30.19,10.0,NE,10.4,-,N/A,,Clear,50,2013-01-02 23:53:00
7:53 PM,3.9,-2.0,76,30.21,10.0,ENE,9.2,-,N/A,,Clear,60,2013-01-03 00:53:00
8:53 PM,1.9,-5.1,72,30.24,7.0,ENE,10.4,-,N/A,,Clear,60,2013-01-03 01:53:00
9:42 PM,1.4,-5.8,72,30.21,10.0,ENE,9.2,-,N/A,,Mostly Cloudy,60,2013-01-03 02:42:00
9:53 PM,1.0,-6.0,72,30.26,10.0,ENE,9.2,-,N/A,,Overcast,60,2013-01-03 02:53:00
10:53 PM,1.0,-7.1,69,30.27,10.0,NE,6.9,-,N/A,,Overcast,40,2013-01-03 03:53:00
11:53 PM,-0.0,-7.1,72,30.29,9.0,East,3.5,-,N/A,,Overcast,90,2013-01-03 04:53:00